createdAt,value
2023-02-06T00:01:37.593Z,6.10
2023-02-06T00:04:05.724Z,6.00
2023-02-06T00:06:33.624Z,6.00
2023-02-06T00:09:01.794Z,6.00
2023-02-06T00:11:29.528Z,6.00
2023-02-06T00:13:57.272Z,6.00
2023-02-06T00:16:28.123Z,6.00
2023-02-06T00:18:56.946Z,6.10
2023-02-06T00:21:26.342Z,6.00
2023-02-06T00:23:56.288Z,6.00
2023-02-06T00:26:24.703Z,5.90
2023-02-06T00:28:52.971Z,5.90
2023-02-06T00:31:20.813Z,6.00
2023-02-06T00:33:48.585Z,6.00
2023-02-06T00:36:16.378Z,6.00
2023-02-06T00:38:44.146Z,6.00
2023-02-06T00:41:11.971Z,6.00
2023-02-06T00:43:39.722Z,6.00
2023-02-06T00:46:07.466Z,5.90
2023-02-06T00:48:35.238Z,5.90
2023-02-06T00:51:04.155Z,5.80
2023-02-06T00:53:34.389Z,5.70
2023-02-06T00:56:03.144Z,5.80
2023-02-06T00:58:30.936Z,5.90
2023-02-06T01:00:58.597Z,6.00
2023-02-06T01:03:26.470Z,6.00
2023-02-06T01:05:54.263Z,6.10
2023-02-06T01:08:22.709Z,6.20
2023-02-06T01:10:50.420Z,6.10
2023-02-06T01:13:18.017Z,6.10
2023-02-06T01:15:45.707Z,6.10
2023-02-06T01:18:13.532Z,6.10
2023-02-06T01:20:41.280Z,6.20
2023-02-06T01:23:09.057Z,6.10
2023-02-06T01:25:37.842Z,6.10
2023-02-06T01:28:05.734Z,6.20
2023-02-06T01:30:33.527Z,6.10
2023-02-06T01:33:01.250Z,6.10
2023-02-06T01:35:29.826Z,6.10
2023-02-06T01:37:57.511Z,6.00
2023-02-06T01:40:25.205Z,5.90
2023-02-06T01:42:52.971Z,5.90
2023-02-06T01:45:26.894Z,5.80
2023-02-06T01:47:57.159Z,5.80
2023-02-06T01:50:25.007Z,5.90
2023-02-06T01:52:52.933Z,6.00
2023-02-06T01:55:20.761Z,5.90
2023-02-06T01:57:48.520Z,5.60
2023-02-06T02:00:16.461Z,5.60
2023-02-06T02:02:48.497Z,5.60
2023-02-06T02:05:18.237Z,5.70
2023-02-06T02:08:01.118Z,5.70
2023-02-06T02:10:30.776Z,5.80
2023-02-06T02:12:58.618Z,5.80
2023-02-06T02:15:49.223Z,5.80
2023-02-06T02:18:38.399Z,5.70
2023-02-06T02:21:21.368Z,5.50
2023-02-06T02:24:06.498Z,5.40
2023-02-06T02:26:40.208Z,5.30
2023-02-06T02:29:10.894Z,5.50
2023-02-06T02:31:56.911Z,5.60
2023-02-06T02:34:47.605Z,5.60
2023-02-06T02:37:16.750Z,5.80
2023-02-06T02:40:08.066Z,5.80
2023-02-06T02:42:53.196Z,5.60
2023-02-06T02:45:33.425Z,5.50
2023-02-06T02:48:12.836Z,5.30
2023-02-06T02:50:41.341Z,5.30
2023-02-06T02:53:09.209Z,5.40
2023-02-06T02:55:37.137Z,5.50
2023-02-06T02:58:12.385Z,5.60
2023-02-06T03:00:51.320Z,5.50
2023-02-06T03:03:23.262Z,5.50
2023-02-06T03:06:12.327Z,5.20
2023-02-06T03:08:52.213Z,5.20
2023-02-06T03:11:24.048Z,5.40
2023-02-06T03:14:10.376Z,5.40
2023-02-06T03:16:47.903Z,5.40
2023-02-06T03:19:19.187Z,5.20
2023-02-06T03:21:47.719Z,5.20
2023-02-06T03:24:20.921Z,5.40
2023-02-06T03:26:51.785Z,5.40
2023-02-06T03:29:20.235Z,5.40
2023-02-06T03:31:57.534Z,5.30
2023-02-06T03:34:31.035Z,5.20
2023-02-06T03:36:58.845Z,5.00
2023-02-06T03:39:27.006Z,4.90
2023-02-06T03:41:59.933Z,4.80
2023-02-06T03:44:33.640Z,4.70
2023-02-06T03:47:04.025Z,4.80
2023-02-06T03:49:34.053Z,4.90
2023-02-06T03:52:11.318Z,4.90
2023-02-06T03:54:45.426Z,5.00
2023-02-06T03:57:19.419Z,4.90
2023-02-06T03:59:47.552Z,5.00
2023-02-06T04:02:16.904Z,4.90
2023-02-06T04:04:45.729Z,4.80
2023-02-06T04:07:19.330Z,4.70
2023-02-06T04:09:47.084Z,4.60
2023-02-06T04:12:15.687Z,4.70
2023-02-06T04:14:44.347Z,4.80
2023-02-06T04:17:14.438Z,4.90
2023-02-06T04:19:42.541Z,4.90
2023-02-06T04:22:13.723Z,4.90
2023-02-06T04:24:41.976Z,5.00
2023-02-06T04:27:12.394Z,5.00
2023-02-06T04:29:40.448Z,4.90
2023-02-06T04:32:08.145Z,4.90
2023-02-06T04:34:37.114Z,4.90
2023-02-06T04:37:05.360Z,5.00
2023-02-06T04:39:33.824Z,4.90
2023-02-06T04:42:02.811Z,5.00
2023-02-06T04:44:31.190Z,5.00
2023-02-06T04:46:58.859Z,4.90
2023-02-06T04:49:26.516Z,4.90
2023-02-06T04:51:54.150Z,4.80
2023-02-06T04:54:21.869Z,4.80
2023-02-06T04:56:49.746Z,4.90
2023-02-06T04:59:17.452Z,4.90
2023-02-06T05:01:45.256Z,4.80
2023-02-06T05:04:13.046Z,4.90
2023-02-06T05:06:40.726Z,4.80
2023-02-06T05:09:08.568Z,4.60
2023-02-06T05:11:36.320Z,4.60
2023-02-06T05:14:04.111Z,4.70
2023-02-06T05:16:31.874Z,4.70
2023-02-06T05:18:59.596Z,4.70
2023-02-06T05:21:28.701Z,4.70
2023-02-06T05:23:56.322Z,4.80
2023-02-06T05:26:24.134Z,4.80
2023-02-06T05:28:52.067Z,4.90
2023-02-06T05:31:20.483Z,4.80
2023-02-06T05:33:52.674Z,4.80
2023-02-06T05:36:21.428Z,4.70
2023-02-06T05:38:50.106Z,4.70
2023-02-06T05:41:18.383Z,4.60
2023-02-06T05:43:46.437Z,4.50
2023-02-06T05:46:14.231Z,4.60
2023-02-06T05:48:41.970Z,4.60
2023-02-06T05:51:09.728Z,4.70
2023-02-06T05:53:37.446Z,4.70
2023-02-06T05:56:05.488Z,4.60
2023-02-06T05:58:33.849Z,4.50
2023-02-06T06:01:01.612Z,4.50
2023-02-06T06:03:30.822Z,4.70
2023-02-06T06:06:00.721Z,4.80
2023-02-06T06:08:28.659Z,4.90
2023-02-06T06:10:56.407Z,4.80
2023-02-06T06:13:24.336Z,4.80
2023-02-06T06:15:53.158Z,4.80
2023-02-06T06:18:21.693Z,4.80
2023-02-06T06:20:49.866Z,4.80
2023-02-06T06:23:17.592Z,4.80
2023-02-06T06:25:47.149Z,5.00
2023-02-06T06:28:15.107Z,4.90
2023-02-06T06:30:42.959Z,5.00
2023-02-06T06:33:11.564Z,4.90
2023-02-06T06:35:39.399Z,5.00
2023-02-06T06:38:07.147Z,5.10
2023-02-06T06:40:34.910Z,4.90
2023-02-06T06:43:02.668Z,5.00
2023-02-06T06:45:30.402Z,4.70
2023-02-06T06:47:58.266Z,4.50
2023-02-06T06:50:26.123Z,4.50
2023-02-06T06:52:53.807Z,4.50
2023-02-06T06:55:21.554Z,4.60
2023-02-06T06:57:49.329Z,4.60
2023-02-06T07:00:17.411Z,4.60
2023-02-06T07:02:45.137Z,4.60
2023-02-06T07:05:12.951Z,4.70
2023-02-06T07:07:40.832Z,4.80
2023-02-06T07:10:10.478Z,4.90
2023-02-06T07:12:39.053Z,5.00
2023-02-06T07:15:07.208Z,5.00
2023-02-06T07:17:35.110Z,5.10
2023-02-06T07:20:03.213Z,5.00
2023-02-06T07:22:30.831Z,5.00
2023-02-06T07:24:58.576Z,4.90
2023-02-06T07:27:26.337Z,4.80
2023-02-06T07:29:54.337Z,4.70
2023-02-06T07:32:22.018Z,4.80
2023-02-06T07:34:50.174Z,4.90
2023-02-06T07:37:17.960Z,4.90
2023-02-06T07:39:46.906Z,4.80
2023-02-06T07:42:14.783Z,5.00
2023-02-06T07:45:00.030Z,5.00
2023-02-06T07:47:27.812Z,5.10
2023-02-06T07:49:55.601Z,5.10
2023-02-06T07:52:23.292Z,5.10
2023-02-06T07:54:50.985Z,5.10
2023-02-06T07:57:19.135Z,5.20
2023-02-06T07:59:46.869Z,5.20
2023-02-06T08:02:14.787Z,5.30
2023-02-06T08:04:42.706Z,5.40
2023-02-06T08:07:15.029Z,5.40
2023-02-06T08:09:43.248Z,5.40
2023-02-06T08:12:12.072Z,5.50
2023-02-06T08:14:39.848Z,5.50
2023-02-06T08:17:07.982Z,5.50
2023-02-06T08:19:36.035Z,5.50
2023-02-06T08:22:03.771Z,5.50
2023-02-06T08:24:31.766Z,5.60
2023-02-06T08:26:59.477Z,5.50
2023-02-06T08:29:27.339Z,5.60
2023-02-06T08:31:55.239Z,5.50
2023-02-06T08:34:22.959Z,5.60
2023-02-06T08:36:50.662Z,5.60
2023-02-06T08:39:19.325Z,5.60
2023-02-06T08:41:47.068Z,5.60
2023-02-06T08:44:18.218Z,5.70
2023-02-06T08:46:47.883Z,5.70
2023-02-06T08:49:19.165Z,5.80
2023-02-06T08:51:47.825Z,5.90
2023-02-06T08:54:17.776Z,5.90
2023-02-06T08:56:46.084Z,6.00
2023-02-06T08:59:15.382Z,6.00
2023-02-06T09:01:45.733Z,6.10
2023-02-06T09:04:14.290Z,6.10
2023-02-06T09:06:47.854Z,6.10
2023-02-06T09:09:15.988Z,6.10
2023-02-06T09:11:43.687Z,6.10
2023-02-06T09:14:16.906Z,6.10
2023-02-06T09:16:46.769Z,6.10
2023-02-06T09:19:14.901Z,6.30
2023-02-06T09:21:43.908Z,6.30
2023-02-06T09:24:11.616Z,6.30
2023-02-06T09:26:58.066Z,6.40
2023-02-06T09:29:27.174Z,6.50
2023-02-06T09:31:55.935Z,6.50
2023-02-06T09:34:25.878Z,6.40
2023-02-06T09:36:57.960Z,6.30
2023-02-06T09:39:26.023Z,6.40
2023-02-06T09:42:19.433Z,6.50
2023-02-06T09:44:51.555Z,6.40
2023-02-06T09:47:30.489Z,6.50
2023-02-06T09:50:07.765Z,6.50
2023-02-06T09:52:44.169Z,6.40
2023-02-06T09:55:29.783Z,6.60
2023-02-06T09:58:16.332Z,6.60
2023-02-06T10:01:09.971Z,6.40
2023-02-06T10:03:49.362Z,6.30
2023-02-06T10:06:30.183Z,6.30
2023-02-06T10:09:08.230Z,6.50
2023-02-06T10:12:05.767Z,6.50
2023-02-06T10:14:54.694Z,6.60
2023-02-06T10:17:42.044Z,6.50
2023-02-06T10:20:21.530Z,6.40
2023-02-06T10:23:13.022Z,6.40
2023-02-06T10:25:45.321Z,6.60
2023-02-06T10:28:23.879Z,6.70
2023-02-06T10:30:57.711Z,6.70
2023-02-06T10:33:37.598Z,6.70
2023-02-06T10:36:05.382Z,6.70
2023-02-06T10:39:00.785Z,6.60
2023-02-06T10:41:48.982Z,6.70
2023-02-06T10:44:32.158Z,6.70
2023-02-06T10:47:00.901Z,6.60
2023-02-06T10:49:41.101Z,6.50
2023-02-06T10:52:44.441Z,6.50
2023-02-06T10:55:25.230Z,6.40
2023-02-06T10:58:19.130Z,6.50
2023-02-06T11:00:48.891Z,6.50
2023-02-06T11:03:20.623Z,6.60
2023-02-06T11:05:50.206Z,6.70
2023-02-06T11:08:20.795Z,6.60
2023-02-06T11:10:48.930Z,6.70
2023-02-06T11:13:34.654Z,6.60
2023-02-06T11:16:13.774Z,6.70
2023-02-06T11:18:45.105Z,6.70
2023-02-06T11:21:15.554Z,6.80
2023-02-06T11:23:46.323Z,6.80
2023-02-06T11:26:22.734Z,6.70
2023-02-06T11:28:56.483Z,6.70
2023-02-06T11:31:44.260Z,6.80
2023-02-06T11:34:33.084Z,6.70
2023-02-06T11:37:02.531Z,6.90
2023-02-06T11:39:38.413Z,6.90
2023-02-06T11:42:13.781Z,6.90
2023-02-06T11:44:43.531Z,6.80
2023-02-06T11:47:28.462Z,6.90
2023-02-06T11:49:57.716Z,7.00
2023-02-06T11:52:34.023Z,7.20
2023-02-06T11:55:02.893Z,7.20
2023-02-06T11:57:36.295Z,7.20
2023-02-06T12:00:22.778Z,7.20
2023-02-06T12:02:53.262Z,7.10
2023-02-06T12:05:25.493Z,7.20
2023-02-06T12:08:02.436Z,7.20
2023-02-06T12:10:34.336Z,7.20
2023-02-06T12:13:08.012Z,7.20
2023-02-06T12:15:49.668Z,7.20
2023-02-06T12:18:22.341Z,7.10
2023-02-06T12:21:00.785Z,7.20
2023-02-06T12:23:40.610Z,7.20
2023-02-06T12:26:18.796Z,7.20
2023-02-06T12:29:20.077Z,7.30
2023-02-06T12:32:05.832Z,7.30
2023-02-06T12:34:55.095Z,7.30
2023-02-06T12:37:26.895Z,7.40
2023-02-06T12:39:54.628Z,7.20
2023-02-06T12:42:32.992Z,7.30
2023-02-06T12:45:22.087Z,7.50
2023-02-06T12:48:02.019Z,7.50
2023-02-06T12:50:51.171Z,7.60
2023-02-06T12:53:40.124Z,7.60
2023-02-06T12:56:26.604Z,7.60
2023-02-06T12:59:00.139Z,7.90
2023-02-06T13:01:53.918Z,8.40
2023-02-06T13:04:34.061Z,8.90
2023-02-06T13:07:11.769Z,8.80
2023-02-06T13:09:47.871Z,8.60
2023-02-06T13:12:23.831Z,8.90
2023-02-06T13:14:55.760Z,9.10
2023-02-06T13:17:34.860Z,9.50
2023-02-06T13:20:14.048Z,9.60
2023-02-06T13:22:46.087Z,9.60
2023-02-06T13:25:39.984Z,9.60
2023-02-06T13:28:23.186Z,9.80
2023-02-06T13:31:02.105Z,10.00
2023-02-06T13:33:52.947Z,9.70
2023-02-06T13:36:42.943Z,9.30
2023-02-06T13:39:32.630Z,9.20
2023-02-06T13:42:22.463Z,8.90
2023-02-06T13:44:52.021Z,9.00
2023-02-06T13:47:49.024Z,9.10
2023-02-06T13:50:49.551Z,9.10
2023-02-06T13:53:48.120Z,9.20
2023-02-06T13:56:47.016Z,8.80
2023-02-06T13:59:32.896Z,8.70
2023-02-06T14:02:40.401Z,8.60
2023-02-06T14:05:15.683Z,8.60
2023-02-06T14:08:10.827Z,8.60
2023-02-06T14:10:46.213Z,8.60
2023-02-06T14:13:38.358Z,8.40
2023-02-06T14:16:50.025Z,8.40
2023-02-06T14:19:40.624Z,8.40
2023-02-06T14:22:14.369Z,8.30
2023-02-06T14:25:08.708Z,8.30
2023-02-06T14:28:20.746Z,8.30
2023-02-06T14:31:04.679Z,8.00
2023-02-06T14:33:56.949Z,8.10
2023-02-06T14:37:00.171Z,7.90
2023-02-06T14:39:42.446Z,7.90
2023-02-06T14:42:19.244Z,7.90
2023-02-06T14:44:55.321Z,7.70
2023-02-06T14:47:42.449Z,7.90
2023-02-06T14:50:27.272Z,7.60
2023-02-06T14:53:20.846Z,7.80
2023-02-06T14:55:48.797Z,7.60
2023-02-06T14:58:24.920Z,7.60
2023-02-06T15:00:53.794Z,7.60
2023-02-06T15:03:26.990Z,7.50
2023-02-06T15:06:12.444Z,7.60
2023-02-06T15:08:48.772Z,7.50
2023-02-06T15:11:32.711Z,7.50
2023-02-06T15:14:03.709Z,7.30
2023-02-06T15:16:33.158Z,7.20
2023-02-06T15:19:21.927Z,7.10
2023-02-06T15:21:59.332Z,7.10
2023-02-06T15:24:48.162Z,7.10
2023-02-06T15:27:42.409Z,7.20
2023-02-06T15:30:20.732Z,7.40
2023-02-06T15:32:51.068Z,7.40
2023-02-06T15:35:30.412Z,7.20
2023-02-06T15:38:08.652Z,7.10
2023-02-06T15:40:39.630Z,7.10
2023-02-06T15:43:07.608Z,7.00
2023-02-06T15:45:39.696Z,7.10
2023-02-06T15:48:28.951Z,7.10
2023-02-06T15:51:08.934Z,7.10
2023-02-06T15:53:40.323Z,7.10
2023-02-06T15:56:23.443Z,6.90
2023-02-06T15:59:05.602Z,6.90
2023-02-06T16:01:39.925Z,6.90
2023-02-06T16:04:19.861Z,6.90
2023-02-06T16:07:19.337Z,6.80
2023-02-06T16:09:59.801Z,6.80
2023-02-06T16:12:32.031Z,6.70
2023-02-06T16:15:02.817Z,6.60
2023-02-06T16:17:35.026Z,6.60
2023-02-06T16:20:05.801Z,6.60
2023-02-06T16:22:37.948Z,6.60
2023-02-06T16:25:26.082Z,6.60
2023-02-06T16:27:54.374Z,6.50
2023-02-06T16:30:33.034Z,6.50
2023-02-06T16:33:16.715Z,6.40
2023-02-06T16:35:45.068Z,6.40
2023-02-06T16:38:15.675Z,6.40
2023-02-06T16:40:56.317Z,6.20
2023-02-06T16:43:30.074Z,6.10
2023-02-06T16:46:00.655Z,6.00
2023-02-06T16:48:28.388Z,6.00
2023-02-06T16:50:55.974Z,5.90
2023-02-06T16:53:25.818Z,6.00
2023-02-06T16:55:53.504Z,6.00
2023-02-06T16:58:23.894Z,6.00
2023-02-06T17:00:51.901Z,6.10
2023-02-06T17:03:19.727Z,6.00
2023-02-06T17:05:50.315Z,6.00
2023-02-06T17:08:24.101Z,6.10
2023-02-06T17:10:52.282Z,6.10
2023-02-06T17:13:23.165Z,6.10
2023-02-06T17:15:55.317Z,6.10
2023-02-06T17:18:24.082Z,6.10
2023-02-06T17:20:53.674Z,6.00
2023-02-06T17:23:21.447Z,5.90
2023-02-06T17:25:50.199Z,5.90
2023-02-06T17:28:19.785Z,6.00
2023-02-06T17:30:48.995Z,5.80
2023-02-06T17:33:17.644Z,5.80
2023-02-06T17:35:47.800Z,5.60
2023-02-06T17:38:15.550Z,5.60
2023-02-06T17:40:43.497Z,5.70
2023-02-06T17:43:11.480Z,5.70
2023-02-06T17:45:40.161Z,5.60
2023-02-06T17:48:08.281Z,5.60
2023-02-06T17:50:37.623Z,5.50
2023-02-06T17:53:06.852Z,5.50
2023-02-06T17:55:36.221Z,5.30
2023-02-06T17:58:04.935Z,5.30
2023-02-06T18:00:33.174Z,5.40
2023-02-06T18:03:00.939Z,5.30
2023-02-06T18:05:28.817Z,5.30
2023-02-06T18:07:56.477Z,5.20
2023-02-06T18:10:27.355Z,4.90
2023-02-06T18:12:55.060Z,4.90
2023-02-06T18:15:22.737Z,4.90
2023-02-06T18:17:50.884Z,4.80
2023-02-06T18:20:18.719Z,4.70
2023-02-06T18:22:47.409Z,4.70
2023-02-06T18:25:15.443Z,4.50
2023-02-06T18:27:45.828Z,4.30
2023-02-06T18:30:15.092Z,4.40
2023-02-06T18:32:42.998Z,4.40
2023-02-06T18:35:11.068Z,4.30
2023-02-06T18:37:38.792Z,4.20
2023-02-06T18:40:07.297Z,4.30
2023-02-06T18:42:53.836Z,4.30
2023-02-06T18:45:24.268Z,4.30
2023-02-06T18:47:52.315Z,4.20
2023-02-06T18:50:21.961Z,4.20
2023-02-06T18:52:50.456Z,4.20
2023-02-06T18:55:18.375Z,4.20
2023-02-06T18:57:46.644Z,4.10
2023-02-06T19:00:17.693Z,4.00
2023-02-06T19:02:45.635Z,4.00
2023-02-06T19:05:13.729Z,4.00
2023-02-06T19:07:41.950Z,4.00
2023-02-06T19:10:13.250Z,3.90
2023-02-06T19:12:41.075Z,3.90
2023-02-06T19:15:09.766Z,3.80
2023-02-06T19:17:38.026Z,3.90
2023-02-06T19:20:06.351Z,3.80
2023-02-06T19:22:35.497Z,3.80
2023-02-06T19:25:04.998Z,4.00
2023-02-06T19:27:32.764Z,4.00
2023-02-06T19:30:00.579Z,4.00
2023-02-06T19:32:29.309Z,4.10
2023-02-06T19:34:58.080Z,4.00
2023-02-06T19:37:26.147Z,3.90
2023-02-06T19:39:53.836Z,4.00
2023-02-06T19:42:21.910Z,4.10
2023-02-06T19:44:55.861Z,4.10
2023-02-06T19:47:23.661Z,4.20
2023-02-06T19:49:52.681Z,4.40
2023-02-06T19:52:20.934Z,4.40
2023-02-06T19:54:48.688Z,4.50
2023-02-06T19:57:19.444Z,4.40
2023-02-06T19:59:47.188Z,4.50
2023-02-06T20:02:15.894Z,4.50
2023-02-06T20:04:45.416Z,4.50
2023-02-06T20:07:13.358Z,4.50
2023-02-06T20:09:42.426Z,4.60
2023-02-06T20:12:12.669Z,4.50
2023-02-06T20:14:40.413Z,4.50
2023-02-06T20:17:08.512Z,4.60
2023-02-06T20:19:36.513Z,4.60
2023-02-06T20:22:04.914Z,4.60
2023-02-06T20:24:32.962Z,4.60
2023-02-06T20:27:03.026Z,4.50
2023-02-06T20:29:36.687Z,4.50
2023-02-06T20:32:06.080Z,4.60
2023-02-06T20:34:35.413Z,4.60
2023-02-06T20:37:03.353Z,4.60
2023-02-06T20:39:31.270Z,4.60
2023-02-06T20:41:59.371Z,4.60
2023-02-06T20:44:27.607Z,4.60
2023-02-06T20:46:55.305Z,4.60
2023-02-06T20:49:26.109Z,4.60
2023-02-06T20:51:54.392Z,4.60
2023-02-06T20:54:22.683Z,4.50
2023-02-06T20:56:50.370Z,4.40
2023-02-06T20:59:20.771Z,4.40
2023-02-06T21:01:48.729Z,4.40
2023-02-06T21:04:17.718Z,4.50
2023-02-06T21:06:48.089Z,4.40
2023-02-06T21:09:16.802Z,4.30
2023-02-06T21:11:47.198Z,4.30
2023-02-06T21:14:15.313Z,4.40
2023-02-06T21:16:44.103Z,4.40
2023-02-06T21:19:14.283Z,4.30
2023-02-06T21:21:45.001Z,4.30
2023-02-06T21:24:14.974Z,4.30
2023-02-06T21:26:43.448Z,4.30
2023-02-06T21:29:13.987Z,4.30
2023-02-06T21:31:42.919Z,4.20
2023-02-06T21:34:17.412Z,4.10
2023-02-06T21:36:46.448Z,4.10
2023-02-06T21:39:27.517Z,4.10
2023-02-06T21:41:56.581Z,4.00
2023-02-06T21:44:25.426Z,4.00
2023-02-06T21:46:53.632Z,4.00
2023-02-06T21:49:21.888Z,4.00
2023-02-06T21:51:53.571Z,3.90
2023-02-06T21:54:22.140Z,3.80
2023-02-06T21:56:49.832Z,3.80
2023-02-06T21:59:18.133Z,3.80
2023-02-06T22:01:45.843Z,3.90
2023-02-06T22:04:13.614Z,3.90
2023-02-06T22:06:41.567Z,3.80
2023-02-06T22:09:15.571Z,3.90
2023-02-06T22:11:44.149Z,3.70
2023-02-06T22:14:15.256Z,3.70
2023-02-06T22:16:43.044Z,3.80
2023-02-06T22:19:11.123Z,3.80
2023-02-06T22:21:39.224Z,3.80
2023-02-06T22:24:08.619Z,3.80
2023-02-06T22:26:38.999Z,3.80
2023-02-06T22:29:08.813Z,3.80
2023-02-06T22:31:38.811Z,3.70
2023-02-06T22:34:11.960Z,3.60
2023-02-06T22:36:39.873Z,3.60
2023-02-06T22:39:09.998Z,3.60
2023-02-06T22:41:40.627Z,3.50
2023-02-06T22:44:08.591Z,3.50
2023-02-06T22:46:38.051Z,3.40
2023-02-06T22:49:07.166Z,3.40
2023-02-06T22:51:35.957Z,3.40
2023-02-06T22:54:04.451Z,3.40
2023-02-06T22:56:37.253Z,3.40
2023-02-06T22:59:14.908Z,3.50
2023-02-06T23:01:47.969Z,3.40
2023-02-06T23:04:20.431Z,3.40
2023-02-06T23:06:49.339Z,3.30
2023-02-06T23:09:23.012Z,3.20
2023-02-06T23:11:51.876Z,3.20
2023-02-06T23:14:20.139Z,3.20
2023-02-06T23:16:48.636Z,3.20
2023-02-06T23:19:17.262Z,3.20
2023-02-06T23:21:46.922Z,3.20
2023-02-06T23:24:15.978Z,3.10
2023-02-06T23:26:46.581Z,3.20
2023-02-06T23:29:19.182Z,3.20
2023-02-06T23:31:47.992Z,3.20
2023-02-06T23:34:17.425Z,3.10
2023-02-06T23:36:46.182Z,3.10
2023-02-06T23:39:14.067Z,3.10
2023-02-06T23:41:42.141Z,3.10
2023-02-06T23:44:10.950Z,3.20
2023-02-06T23:46:39.573Z,3.20
2023-02-06T23:49:07.701Z,3.30
2023-02-06T23:51:36.731Z,3.20
2023-02-06T23:54:05.474Z,3.20
2023-02-06T23:56:33.270Z,3.10
2023-02-06T23:59:02.440Z,3.10
